createdAt,value
2022-10-11T00:00:06.979Z,81.54
2022-10-11T00:02:33.334Z,81.46
2022-10-11T00:04:59.693Z,81.56
2022-10-11T00:07:26.741Z,81.90
2022-10-11T00:09:53.067Z,81.77
2022-10-11T00:12:19.414Z,81.83
2022-10-11T00:14:45.835Z,81.29
2022-10-11T00:17:21.265Z,81.54
2022-10-11T00:19:47.720Z,81.26
2022-10-11T00:22:14.176Z,81.21
2022-10-11T00:24:40.545Z,81.28
2022-10-11T00:27:07.256Z,81.66
2022-10-11T00:29:33.710Z,81.85
2022-10-11T00:32:00.091Z,81.75
2022-10-11T00:34:26.410Z,81.85
2022-10-11T00:36:52.768Z,81.99
2022-10-11T00:39:19.105Z,81.92
2022-10-11T00:41:46.647Z,81.88
2022-10-11T00:44:23.447Z,81.78
2022-10-11T00:46:57.781Z,81.65
2022-10-11T00:49:36.961Z,81.96
2022-10-11T00:52:06.017Z,81.59
2022-10-11T00:54:37.842Z,81.66
2022-10-11T00:57:07.990Z,81.77
2022-10-11T00:59:42.648Z,81.63
2022-10-11T01:02:10.192Z,81.59
2022-10-11T01:04:37.067Z,81.68
2022-10-11T01:07:03.596Z,81.57
2022-10-11T01:09:33.057Z,81.55
2022-10-11T01:12:02.705Z,81.35
2022-10-11T01:14:49.992Z,81.24
2022-10-11T01:17:31.552Z,81.36
2022-10-11T01:20:40.629Z,81.68
2022-10-11T01:23:34.779Z,81.90
2022-10-11T01:26:38.484Z,81.53
2022-10-11T01:29:25.677Z,81.85
2022-10-11T01:32:03.676Z,81.59
2022-10-11T01:34:41.411Z,81.71
2022-10-11T01:37:19.154Z,81.88
2022-10-11T01:40:14.013Z,82.14
2022-10-11T01:42:41.680Z,82.15
2022-10-11T01:45:10.672Z,81.94
2022-10-11T01:47:39.206Z,81.89
2022-10-11T01:50:08.036Z,81.84
2022-10-11T01:52:42.154Z,81.98
2022-10-11T01:55:35.904Z,82.31
2022-10-11T01:58:53.048Z,82.15
2022-10-11T02:01:33.488Z,82.10
2022-10-11T02:04:24.739Z,81.99
2022-10-11T02:07:00.702Z,82.18
2022-10-11T02:09:44.958Z,82.51
2022-10-11T02:12:20.644Z,82.18
2022-10-11T02:14:51.082Z,82.22
2022-10-11T02:17:21.799Z,81.99
2022-10-11T02:19:52.139Z,81.95
2022-10-11T02:22:26.446Z,82.17
2022-10-11T02:24:57.749Z,82.27
2022-10-11T02:27:27.676Z,82.35
2022-10-11T02:29:56.735Z,81.92
2022-10-11T02:32:26.329Z,82.02
2022-10-11T02:34:55.802Z,82.17
2022-10-11T02:37:50.128Z,82.30
2022-10-11T02:40:33.452Z,82.30
2022-10-11T02:43:07.661Z,81.97
2022-10-11T02:46:07.653Z,81.81
2022-10-11T02:48:35.623Z,82.40
2022-10-11T02:51:03.544Z,82.60
2022-10-11T02:53:29.986Z,82.49
2022-10-11T02:55:56.468Z,82.36
2022-10-11T02:58:23.993Z,82.41
2022-10-11T03:00:50.445Z,82.17
2022-10-11T03:03:19.545Z,81.84
2022-10-11T03:05:46.073Z,82.19
2022-10-11T03:08:14.433Z,82.08
2022-10-11T03:10:41.246Z,81.95
2022-10-11T03:13:07.622Z,81.98
2022-10-11T03:15:34.099Z,81.86
2022-10-11T03:18:00.567Z,81.64
2022-10-11T03:20:27.061Z,82.09
2022-10-11T03:22:53.399Z,82.03
2022-10-11T03:25:19.745Z,82.02
2022-10-11T03:27:47.104Z,82.27
2022-10-11T03:30:17.912Z,81.81
2022-10-11T03:32:44.560Z,82.03
2022-10-11T03:35:10.892Z,81.94
2022-10-11T03:37:37.483Z,81.73
2022-10-11T03:40:05.773Z,81.96
2022-10-11T03:42:33.345Z,82.30
2022-10-11T03:45:01.665Z,82.10
2022-10-11T03:47:27.974Z,81.99
2022-10-11T03:49:56.402Z,82.18
2022-10-11T03:52:23.047Z,82.28
2022-10-11T03:54:49.343Z,82.23
2022-10-11T03:57:15.687Z,82.33
2022-10-11T03:59:42.221Z,82.59
2022-10-11T04:02:08.658Z,82.33
2022-10-11T04:04:35.080Z,82.59
2022-10-11T04:07:01.420Z,82.85
2022-10-11T04:09:27.922Z,82.42
2022-10-11T04:11:54.248Z,82.73
2022-10-11T04:14:20.568Z,82.19
2022-10-11T04:16:49.972Z,82.39
2022-10-11T04:19:16.543Z,82.14
2022-10-11T04:21:44.043Z,81.92
2022-10-11T04:24:13.297Z,82.22
2022-10-11T04:26:39.813Z,82.07
2022-10-11T04:29:06.312Z,82.68
2022-10-11T04:31:32.651Z,82.66
2022-10-11T04:33:59.088Z,82.35
2022-10-11T04:36:25.560Z,82.30
2022-10-11T04:38:51.940Z,82.25
2022-10-11T04:41:18.287Z,82.43
2022-10-11T04:43:44.675Z,82.58
2022-10-11T04:46:11.503Z,82.34
2022-10-11T04:48:38.144Z,82.16
2022-10-11T04:51:05.296Z,82.71
2022-10-11T04:53:33.788Z,82.82
2022-10-11T04:56:03.838Z,82.77
2022-10-11T04:58:32.321Z,82.69
2022-10-11T05:00:58.723Z,82.83
2022-10-11T05:03:26.114Z,82.87
2022-10-11T05:05:53.126Z,82.66
2022-10-11T05:08:20.482Z,82.65
2022-10-11T05:11:15.535Z,82.73
2022-10-11T05:13:43.567Z,82.82
2022-10-11T05:16:11.312Z,82.79
2022-10-11T05:18:39.188Z,83.10
2022-10-11T05:21:09.000Z,82.82
2022-10-11T05:23:36.928Z,82.81
2022-10-11T05:26:04.162Z,83.00
2022-10-11T05:28:33.623Z,83.19
2022-10-11T05:31:00.021Z,82.81
2022-10-11T05:33:26.714Z,83.04
2022-10-11T05:35:53.724Z,83.22
2022-10-11T05:38:20.130Z,83.07
2022-10-11T05:40:46.562Z,83.25
2022-10-11T05:43:12.960Z,83.14
2022-10-11T05:45:41.618Z,82.99
2022-10-11T05:48:09.494Z,83.25
2022-10-11T05:50:40.540Z,83.18
2022-10-11T05:53:07.241Z,82.92
2022-10-11T05:55:41.548Z,83.08
2022-10-11T05:58:11.661Z,83.11
2022-10-11T06:00:39.817Z,83.34
2022-10-11T06:03:07.864Z,83.21
2022-10-11T06:05:35.176Z,83.22
2022-10-11T06:08:02.501Z,83.37
2022-10-11T06:10:29.453Z,83.44
2022-10-11T06:12:56.003Z,83.22
2022-10-11T06:15:22.581Z,83.30
2022-10-11T06:17:49.072Z,83.14
2022-10-11T06:20:15.701Z,83.56
2022-10-11T06:22:42.595Z,83.22
2022-10-11T06:25:09.331Z,83.48
2022-10-11T06:27:35.902Z,83.40
2022-10-11T06:30:04.125Z,83.55
2022-10-11T06:32:31.413Z,83.27
2022-10-11T06:34:59.186Z,83.41
2022-10-11T06:37:25.505Z,83.75
2022-10-11T06:39:51.842Z,83.57
2022-10-11T06:42:18.272Z,83.72
2022-10-11T06:44:49.600Z,83.38
2022-10-11T06:47:15.940Z,83.53
2022-10-11T06:49:44.786Z,83.42
2022-10-11T06:52:11.151Z,83.13
2022-10-11T06:54:41.227Z,82.98
2022-10-11T06:57:10.650Z,82.86
2022-10-11T06:59:37.238Z,82.81
2022-10-11T07:02:05.191Z,83.14
2022-10-11T07:04:33.851Z,83.25
2022-10-11T07:07:00.332Z,83.26
2022-10-11T07:09:26.673Z,82.85
2022-10-11T07:11:54.174Z,82.99
2022-10-11T07:14:22.554Z,83.01
2022-10-11T07:16:48.896Z,83.08
2022-10-11T07:19:15.377Z,82.90
2022-10-11T07:21:54.613Z,83.09
2022-10-11T07:24:21.280Z,82.57
2022-10-11T07:26:47.735Z,82.99
2022-10-11T07:29:16.494Z,82.68
2022-10-11T07:31:43.550Z,82.36
2022-10-11T07:34:10.715Z,82.01
2022-10-11T07:36:37.654Z,82.11
2022-10-11T07:39:06.114Z,81.91
2022-10-11T07:41:32.728Z,82.31
2022-10-11T07:44:02.073Z,81.84
2022-10-11T07:46:28.505Z,81.97
2022-10-11T07:48:58.089Z,81.86
2022-10-11T07:51:25.366Z,82.22
2022-10-11T07:53:55.528Z,82.01
2022-10-11T07:56:27.362Z,81.78
2022-10-11T07:58:58.525Z,81.60
2022-10-11T08:01:26.616Z,81.57
2022-10-11T08:03:53.795Z,81.47
2022-10-11T08:06:22.980Z,81.70
2022-10-11T08:08:49.995Z,81.60
2022-10-11T08:11:26.611Z,81.52
2022-10-11T08:13:53.879Z,81.33
2022-10-11T08:16:20.917Z,82.46
2022-10-11T08:18:47.401Z,83.29
2022-10-11T08:21:16.273Z,81.60
2022-10-11T08:23:42.828Z,78.84
2022-10-11T08:26:09.783Z,76.77
2022-10-11T08:28:36.750Z,74.48
2022-10-11T08:31:03.489Z,73.08
2022-10-11T08:33:30.906Z,71.74
2022-10-11T08:35:57.469Z,69.78
2022-10-11T08:38:24.487Z,68.38
2022-10-11T08:40:57.293Z,67.13
2022-10-11T08:44:06.768Z,66.60
2022-10-11T08:46:39.099Z,66.55
2022-10-11T08:49:07.401Z,66.22
2022-10-11T08:51:44.462Z,65.98
2022-10-11T08:54:33.212Z,67.02
2022-10-11T08:57:03.801Z,68.24
2022-10-11T08:59:46.447Z,65.53
2022-10-11T09:02:55.494Z,62.59
2022-10-11T09:05:20.523Z,61.13
2022-10-11T09:08:11.406Z,59.56
2022-10-11T09:10:47.574Z,58.17
2022-10-11T09:13:42.657Z,58.15
2022-10-11T09:16:19.442Z,58.77
2022-10-11T09:19:13.515Z,59.12
2022-10-11T09:21:59.789Z,59.21
2022-10-11T09:24:30.616Z,59.56
2022-10-11T09:27:01.416Z,60.14
2022-10-11T09:30:06.949Z,61.36
2022-10-11T09:32:39.659Z,61.51
2022-10-11T09:35:24.363Z,61.41
2022-10-11T09:38:05.948Z,61.57
2022-10-11T09:41:01.593Z,61.91
2022-10-11T09:44:17.059Z,61.35
2022-10-11T09:46:47.552Z,61.37
2022-10-11T09:49:16.321Z,61.41
2022-10-11T09:51:58.005Z,61.50
2022-10-11T09:54:41.448Z,61.54
2022-10-11T09:57:19.983Z,59.57
2022-10-11T10:00:18.866Z,57.93
2022-10-11T10:02:49.309Z,56.72
2022-10-11T10:05:42.844Z,55.24
2022-10-11T10:08:09.278Z,52.62
2022-10-11T10:10:48.889Z,51.21
2022-10-11T10:13:20.930Z,49.21
2022-10-11T10:15:51.005Z,47.20
2022-10-11T10:18:26.867Z,43.71
2022-10-11T10:20:56.686Z,41.87
2022-10-11T10:23:31.713Z,40.70
2022-10-11T10:26:16.615Z,39.85
2022-10-11T10:29:15.762Z,38.48
2022-10-11T10:32:12.813Z,37.05
2022-10-11T10:34:51.145Z,36.28
2022-10-11T10:37:29.344Z,35.93
2022-10-11T10:40:09.882Z,35.41
2022-10-11T10:42:37.183Z,34.18
2022-10-11T10:45:22.139Z,32.96
2022-10-11T10:49:01.774Z,32.92
2022-10-11T10:52:06.656Z,33.79
2022-10-11T10:54:38.993Z,33.05
2022-10-11T10:57:28.024Z,32.67
2022-10-11T11:00:32.752Z,32.81
2022-10-11T11:03:22.970Z,32.71
2022-10-11T11:06:04.534Z,32.48
2022-10-11T11:08:50.168Z,32.07
2022-10-11T11:11:16.431Z,32.08
2022-10-11T11:14:06.508Z,32.83
2022-10-11T11:16:44.935Z,32.81
2022-10-11T11:19:26.404Z,32.96
2022-10-11T11:22:32.896Z,32.33
2022-10-11T11:25:21.995Z,32.76
2022-10-11T11:28:05.281Z,33.37
2022-10-11T11:31:02.449Z,33.24
2022-10-11T11:33:58.810Z,33.60
2022-10-11T11:36:37.351Z,33.30
2022-10-11T11:39:12.317Z,33.47
2022-10-11T11:41:48.413Z,34.00
2022-10-11T11:47:28.073Z,33.63
2022-10-11T11:50:04.770Z,33.68
2022-10-11T11:52:46.593Z,34.38
2022-10-11T11:55:38.713Z,33.94
2022-10-11T11:58:17.935Z,34.27
2022-10-11T12:01:13.481Z,34.96
2022-10-11T12:03:44.573Z,34.75
2022-10-11T12:06:14.985Z,34.82
2022-10-11T12:08:54.027Z,34.65
2022-10-11T12:11:35.384Z,34.83
2022-10-11T12:14:28.355Z,34.81
2022-10-11T12:17:22.717Z,35.33
2022-10-11T12:20:20.726Z,35.44
2022-10-11T12:23:01.630Z,35.53
2022-10-11T12:25:28.715Z,36.18
2022-10-11T12:28:01.638Z,36.16
2022-10-11T12:30:56.069Z,36.27
2022-10-11T12:33:25.406Z,35.97
2022-10-11T12:35:54.741Z,35.93
2022-10-11T12:38:28.666Z,36.02
2022-10-11T12:41:00.620Z,35.82
2022-10-11T12:43:33.571Z,35.60
2022-10-11T12:46:33.840Z,35.40
2022-10-11T12:49:24.840Z,35.92
2022-10-11T12:51:51.162Z,35.63
2022-10-11T12:54:54.416Z,36.16
2022-10-11T12:57:26.783Z,36.05
2022-10-11T12:59:53.428Z,36.31
2022-10-11T13:02:40.139Z,36.56
2022-10-11T13:05:24.820Z,37.08
2022-10-11T13:07:54.476Z,36.79
2022-10-11T13:10:38.902Z,37.19
2022-10-11T13:13:16.320Z,37.14
2022-10-11T13:16:02.073Z,37.42
2022-10-11T13:18:28.638Z,37.42
2022-10-11T13:20:59.871Z,37.62
2022-10-11T13:23:37.537Z,37.84
2022-10-11T13:26:09.130Z,38.22
2022-10-11T13:28:36.731Z,38.25
2022-10-11T13:31:09.510Z,37.63
2022-10-11T13:33:46.891Z,37.47
2022-10-11T13:36:19.899Z,37.63
2022-10-11T13:38:58.567Z,38.18
2022-10-11T13:41:31.246Z,37.97
2022-10-11T13:43:59.946Z,38.04
2022-10-11T13:46:30.696Z,37.89
2022-10-11T13:49:05.096Z,37.81
2022-10-11T13:51:42.602Z,38.07
2022-10-11T13:54:13.622Z,38.27
2022-10-11T13:56:43.138Z,38.07
2022-10-11T13:59:36.246Z,38.14
2022-10-11T14:02:04.301Z,38.39
2022-10-11T14:04:40.648Z,38.28
2022-10-11T14:07:38.201Z,38.22
2022-10-11T14:10:08.986Z,38.50
2022-10-11T14:12:44.343Z,38.53
2022-10-11T14:15:24.267Z,38.39
2022-10-11T14:17:51.459Z,38.71
2022-10-11T14:20:22.698Z,38.85
2022-10-11T14:22:53.387Z,39.08
2022-10-11T14:25:22.817Z,39.17
2022-10-11T14:27:49.573Z,39.17
2022-10-11T14:30:27.628Z,39.19
2022-10-11T14:32:57.668Z,39.06
2022-10-11T14:35:32.137Z,39.15
2022-10-11T14:38:00.416Z,39.22
2022-10-11T14:40:30.012Z,39.30
2022-10-11T14:42:59.434Z,39.08
2022-10-11T14:45:27.292Z,39.14
2022-10-11T14:47:55.455Z,38.94
2022-10-11T14:50:30.899Z,39.21
2022-10-11T14:52:58.219Z,39.22
2022-10-11T14:55:25.103Z,38.97
2022-10-11T14:57:51.679Z,39.30
2022-10-11T15:00:24.373Z,39.14
2022-10-11T15:02:52.865Z,39.17
2022-10-11T15:05:20.523Z,38.99
2022-10-11T15:07:47.272Z,38.75
2022-10-11T15:10:22.400Z,39.12
2022-10-11T15:12:50.717Z,38.93
2022-10-11T15:15:23.062Z,39.03
2022-10-11T15:17:55.087Z,38.73
2022-10-11T15:20:33.490Z,38.58
2022-10-11T15:23:01.606Z,38.83
2022-10-11T15:25:28.986Z,38.69
2022-10-11T15:27:56.632Z,39.05
2022-10-11T15:30:30.061Z,39.15
2022-10-11T15:32:59.755Z,39.02
2022-10-11T15:35:34.179Z,39.24
2022-10-11T15:38:00.615Z,39.23
2022-10-11T15:40:30.171Z,39.22
2022-10-11T15:42:56.925Z,39.44
2022-10-11T15:45:23.891Z,39.40
2022-10-11T15:47:50.867Z,39.71
2022-10-11T15:50:35.181Z,39.52
2022-10-11T15:53:13.442Z,39.81
2022-10-11T15:55:43.631Z,39.77
2022-10-11T15:58:15.457Z,40.23
2022-10-11T16:00:42.882Z,40.32
2022-10-11T16:03:11.650Z,40.77
2022-10-11T16:05:38.392Z,40.72
2022-10-11T16:08:04.943Z,41.18
2022-10-11T16:10:38.043Z,41.17
2022-10-11T16:13:05.208Z,41.40
2022-10-11T16:15:31.936Z,41.82
2022-10-11T16:17:58.671Z,41.88
2022-10-11T16:20:26.701Z,42.13
2022-10-11T16:22:54.400Z,42.72
2022-10-11T16:25:22.058Z,43.00
2022-10-11T16:27:49.013Z,43.20
2022-10-11T16:30:16.790Z,43.42
2022-10-11T16:32:44.347Z,43.72
2022-10-11T16:35:12.968Z,44.16
2022-10-11T16:37:40.025Z,44.82
2022-10-11T16:40:08.289Z,45.08
2022-10-11T16:42:35.572Z,45.31
2022-10-11T16:45:01.907Z,45.62
2022-10-11T16:47:28.266Z,45.91
2022-10-11T16:49:54.837Z,46.10
2022-10-11T16:52:21.410Z,46.46
2022-10-11T16:54:57.679Z,47.04
2022-10-11T16:57:27.924Z,47.59
2022-10-11T16:59:54.665Z,47.52
2022-10-11T17:02:31.384Z,47.55
2022-10-11T17:05:02.577Z,47.87
2022-10-11T17:07:32.317Z,48.61
2022-10-11T17:10:00.993Z,49.09
2022-10-11T17:12:31.980Z,50.09
2022-10-11T17:14:58.540Z,50.89
2022-10-11T17:17:24.982Z,51.42
2022-10-11T17:19:51.318Z,52.15
2022-10-11T17:22:20.443Z,52.84
2022-10-11T17:24:46.956Z,53.40
2022-10-11T17:27:13.587Z,53.62
2022-10-11T17:29:40.103Z,54.04
2022-10-11T17:32:06.611Z,54.30
2022-10-11T17:34:33.294Z,54.53
2022-10-11T17:37:04.803Z,54.75
2022-10-11T17:39:32.704Z,55.18
2022-10-11T17:42:04.826Z,55.21
2022-10-11T17:44:31.307Z,55.69
2022-10-11T17:46:57.705Z,56.10
2022-10-11T17:49:24.076Z,56.42
2022-10-11T17:51:50.433Z,56.85
2022-10-11T17:54:16.824Z,57.27
2022-10-11T17:56:43.260Z,57.76
2022-10-11T17:59:16.168Z,58.18
2022-10-11T18:01:43.307Z,58.51
2022-10-11T18:04:16.544Z,58.85
2022-10-11T18:06:45.088Z,58.93
2022-10-11T18:09:13.012Z,59.28
2022-10-11T18:11:39.624Z,59.57
2022-10-11T18:14:06.278Z,59.83
2022-10-11T18:16:33.095Z,60.30
2022-10-11T18:19:01.712Z,60.90
2022-10-11T18:21:34.018Z,61.18
2022-10-11T18:24:03.510Z,61.18
2022-10-11T18:26:30.888Z,61.72
2022-10-11T18:28:58.906Z,61.72
2022-10-11T18:31:27.592Z,62.12
2022-10-11T18:33:54.737Z,62.13
2022-10-11T18:36:24.332Z,62.58
2022-10-11T18:38:57.993Z,62.54
2022-10-11T18:41:30.553Z,63.07
2022-10-11T18:44:00.520Z,62.81
2022-10-11T18:46:27.749Z,62.69
2022-10-11T18:48:56.702Z,62.69
2022-10-11T18:51:28.979Z,62.66
2022-10-11T18:53:58.598Z,63.20
2022-10-11T18:56:26.822Z,63.28
2022-10-11T18:58:54.809Z,63.61
2022-10-11T19:01:29.973Z,63.36
2022-10-11T19:03:58.145Z,63.62
2022-10-11T19:06:36.995Z,63.96
2022-10-11T19:09:07.091Z,64.18
2022-10-11T19:11:33.713Z,64.38
2022-10-11T19:14:01.935Z,64.57
2022-10-11T19:16:32.695Z,64.82
2022-10-11T19:18:59.814Z,65.24
2022-10-11T19:21:26.558Z,65.26
2022-10-11T19:23:55.396Z,65.52
2022-10-11T19:26:26.231Z,65.85
2022-10-11T19:28:59.137Z,65.81
2022-10-11T19:31:26.554Z,65.94
2022-10-11T19:33:53.724Z,66.32
2022-10-11T19:36:20.363Z,66.82
2022-10-11T19:38:49.306Z,66.80
2022-10-11T19:41:20.522Z,67.10
2022-10-11T19:43:46.948Z,66.82
2022-10-11T19:46:20.272Z,67.52
2022-10-11T19:48:53.067Z,67.63
2022-10-11T19:51:27.498Z,67.65
2022-10-11T19:54:00.803Z,67.80
2022-10-11T19:56:29.658Z,67.90
2022-10-11T19:58:56.107Z,67.41
2022-10-11T20:01:25.372Z,67.57
2022-10-11T20:03:54.557Z,67.38
2022-10-11T20:06:22.705Z,67.13
2022-10-11T20:09:10.315Z,66.78
2022-10-11T20:11:39.247Z,66.68
2022-10-11T20:14:06.115Z,66.67
2022-10-11T20:16:32.653Z,66.43
2022-10-11T20:18:59.322Z,66.85
2022-10-11T20:21:28.732Z,67.22
2022-10-11T20:24:00.905Z,67.45
2022-10-11T20:26:27.820Z,67.76
2022-10-11T20:28:56.155Z,67.96
2022-10-11T20:31:28.738Z,69.16
2022-10-11T20:33:57.403Z,69.39
2022-10-11T20:36:25.253Z,69.05
2022-10-11T20:38:52.227Z,69.18
2022-10-11T20:41:22.029Z,69.16
2022-10-11T20:43:50.360Z,69.62
2022-10-11T20:46:19.592Z,70.06
2022-10-11T20:49:01.578Z,70.15
2022-10-11T20:51:30.776Z,69.73
2022-10-11T20:53:58.438Z,69.88
2022-10-11T20:56:24.962Z,69.76
2022-10-11T20:58:54.725Z,70.17
2022-10-11T21:01:26.109Z,70.24
2022-10-11T21:03:52.864Z,69.54
2022-10-11T21:06:19.459Z,69.34
2022-10-11T21:08:45.804Z,69.84
2022-10-11T21:11:12.171Z,69.71
2022-10-11T21:13:38.527Z,69.77
2022-10-11T21:16:11.999Z,69.45
2022-10-11T21:18:38.798Z,69.91
2022-10-11T21:21:10.737Z,70.12
2022-10-11T21:23:37.167Z,70.54
2022-10-11T21:26:05.808Z,71.29
2022-10-11T21:28:32.986Z,71.03
2022-10-11T21:31:04.523Z,71.28
2022-10-11T21:33:30.894Z,71.01
2022-10-11T21:35:57.543Z,71.27
2022-10-11T21:38:26.911Z,71.25
2022-10-11T21:40:53.536Z,71.14
2022-10-11T21:43:20.047Z,71.38
2022-10-11T21:45:46.389Z,71.53
2022-10-11T21:48:12.772Z,71.17
2022-10-11T21:50:39.241Z,71.96
2022-10-11T21:53:05.549Z,72.21
2022-10-11T21:55:31.921Z,72.77
2022-10-11T21:57:58.450Z,72.84
2022-10-11T22:00:24.765Z,72.92
2022-10-11T22:02:53.415Z,73.07
2022-10-11T22:05:19.825Z,72.45
2022-10-11T22:07:48.834Z,72.12
2022-10-11T22:10:15.207Z,72.18
2022-10-11T22:12:41.550Z,71.70
2022-10-11T22:15:08.495Z,71.39
2022-10-11T22:17:34.807Z,71.73
2022-10-11T22:20:01.473Z,71.28
2022-10-11T22:22:27.813Z,71.22
2022-10-11T22:24:54.694Z,70.85
2022-10-11T22:27:21.530Z,70.96
2022-10-11T22:29:48.128Z,70.60
2022-10-11T22:32:14.462Z,71.07
2022-10-11T22:34:40.793Z,71.36
2022-10-11T22:37:09.914Z,71.44
2022-10-11T22:39:36.628Z,71.68
2022-10-11T22:42:03.040Z,72.35
2022-10-11T22:44:29.337Z,72.25
2022-10-11T22:46:55.766Z,72.41
2022-10-11T22:49:22.534Z,72.77
2022-10-11T22:51:49.576Z,73.07
2022-10-11T22:54:15.906Z,72.76
2022-10-11T22:56:42.467Z,73.03
2022-10-11T22:59:09.682Z,73.10
2022-10-11T23:01:36.135Z,73.11
2022-10-11T23:04:02.559Z,73.18
2022-10-11T23:06:29.434Z,73.13
2022-10-11T23:08:55.995Z,72.52
2022-10-11T23:11:25.077Z,72.58
2022-10-11T23:13:51.713Z,73.00
2022-10-11T23:16:18.016Z,72.41
2022-10-11T23:18:44.530Z,72.63
2022-10-11T23:21:23.006Z,72.47
2022-10-11T23:23:53.629Z,72.42
2022-10-11T23:26:20.505Z,72.36
2022-10-11T23:28:47.351Z,71.73
2022-10-11T23:31:16.652Z,71.77
2022-10-11T23:33:47.388Z,72.36
2022-10-11T23:36:24.999Z,72.28
2022-10-11T23:38:56.223Z,72.17
2022-10-11T23:41:25.373Z,71.94
2022-10-11T23:43:52.124Z,71.73
2022-10-11T23:46:19.029Z,71.82
2022-10-11T23:48:45.666Z,71.45
2022-10-11T23:51:13.385Z,71.90
2022-10-11T23:53:39.830Z,72.71
2022-10-11T23:56:06.802Z,72.30
2022-10-11T23:58:33.504Z,72.77
